Time;durP1;ratioP1;P1;durP2;ratioP2;P2;SDS_P1;SDS_P2;PMS_P1;PMS_P2;Temp;Humidity;BMP_temperature;BMP_pressure;BME280_temperature;BME280_humidity;BME280_pressure;Samples;Min_cycle;Max_cycle;Signal;HPM_P1;HPM_P2
2023/03/05 00:00:50;;;;;;;22.25;15.05;;;;;;;8.54;74.37;94590.69;5029563;28;20198;-63
2023/03/05 00:03:16;;;;;;;26.05;14.75;;;;;;;8.55;74.39;94577.13;5027404;28;20304;-62
2023/03/05 00:05:43;;;;;;;29.33;14.95;;;;;;;8.39;74.99;94576.00;5027798;28;20207;-63
2023/03/05 00:08:10;;;;;;;25.25;14.82;;;;;;;8.35;75.40;94584.56;5030713;28;20242;-61
2023/03/05 00:10:37;;;;;;;26.80;14.70;;;;;;;8.34;75.62;94575.31;5028930;28;20931;-61
2023/03/05 00:13:05;;;;;;;25.67;15.60;;;;;;;8.44;74.34;94580.00;5029823;28;20203;-63
2023/03/05 00:15:31;;;;;;;25.23;15.30;;;;;;;8.33;75.38;94566.91;5027537;28;20210;-64
2023/03/05 00:17:58;;;;;;;28.48;15.50;;;;;;;8.38;74.81;94579.41;5028569;28;20667;-58
2023/03/05 00:20:25;;;;;;;26.42;15.18;;;;;;;8.39;75.04;94570.94;5025307;28;20215;-62
2023/03/05 00:22:51;;;;;;;27.48;15.77;;;;;;;8.39;75.04;94570.94;5025125;28;20333;-63
2023/03/05 00:25:18;;;;;;;26.67;15.00;;;;;;;8.27;74.90;94567.06;5023890;28;20213;-62
2023/03/05 00:27:45;;;;;;;25.65;15.55;;;;;;;8.32;74.62;94570.31;5029473;28;20312;-60
2023/03/05 00:30:14;;;;;;;24.27;15.10;;;;;;;8.42;74.88;94565.75;5023028;28;22034;-62
2023/03/05 00:32:41;;;;;;;25.83;14.27;;;;;;;8.43;74.16;94559.81;5025522;28;20810;-60
2023/03/05 00:35:08;;;;;;;27.88;15.50;;;;;;;8.51;74.02;94560.38;5030867;28;20203;-60
2023/03/05 00:37:35;;;;;;;32.97;15.40;;;;;;;8.57;73.46;94559.34;5022700;28;20206;-65
2023/03/05 00:40:02;;;;;;;24.05;14.80;;;;;;;8.52;73.27;94556.97;5022353;28;20239;-64
2023/03/05 00:42:29;;;;;;;28.25;15.15;;;;;;;8.43;73.60;94554.75;5026977;28;20639;-66
2023/03/05 00:44:55;;;;;;;25.38;14.85;;;;;;;8.50;73.33;94551.97;5029180;28;20209;-66
2023/03/05 00:47:23;;;;;;;27.33;14.25;;;;;;;8.43;73.53;94539.53;5026411;28;20645;-62
2023/03/05 00:49:50;;;;;;;26.20;14.82;;;;;;;8.32;73.51;94544.13;5021972;28;20257;-60
2023/03/05 00:52:17;;;;;;;27.85;15.65;;;;;;;8.36;73.95;94541.47;5030418;28;20677;-66
2023/03/05 00:54:44;;;;;;;26.15;15.13;;;;;;;8.41;73.11;94543.88;5026998;28;20206;-64
2023/03/05 00:57:10;;;;;;;24.77;14.60;;;;;;;8.44;73.41;94536.13;5027788;28;20968;-64
2023/03/05 00:59:37;;;;;;;31.90;15.38;;;;;;;8.37;73.39;94527.13;5023488;28;21962;-68
2023/03/05 01:02:04;;;;;;;24.77;13.93;;;;;;;8.30;73.18;94533.22;5026812;28;20225;-65
2023/03/05 01:04:32;;;;;;;25.63;14.60;;;;;;;8.32;72.82;94534.84;5026875;28;20210;-58
2023/03/05 01:06:59;;;;;;;27.58;15.25;;;;;;;8.37;72.49;94533.00;5026464;28;20199;-62
2023/03/05 01:09:26;;;;;;;21.35;14.20;;;;;;;8.36;72.90;94525.47;5027087;28;20227;-64
2023/03/05 01:11:53;;;;;;;22.83;14.73;;;;;;;8.37;72.96;94522.06;5027940;28;20583;-64
2023/03/05 01:14:20;;;;;;;22.05;15.05;;;;;;;8.35;73.63;94532.22;5022740;28;20207;-62
2023/03/05 01:16:47;;;;;;;22.30;13.98;;;;;;;8.39;73.04;94526.19;5026845;28;20816;-59
2023/03/05 01:19:15;;;;;;;29.85;14.48;;;;;;;8.39;72.99;94520.31;5026815;28;20200;-62
2023/03/05 01:21:43;;;;;;;30.75;14.73;;;;;;;8.28;73.02;94522.31;5028083;28;20211;-65
2023/03/05 01:24:10;;;;;;;24.90;15.15;;;;;;;8.36;72.66;94520.41;5024611;28;20279;-63
2023/03/05 01:26:37;;;;;;;20.65;13.93;;;;;;;8.37;71.81;94517.00;5024484;28;20758;-61
2023/03/05 01:29:04;;;;;;;23.23;14.25;;;;;;;8.42;71.66;94525.22;5029997;28;20221;-60
2023/03/05 01:31:30;;;;;;;24.42;14.73;;;;;;;8.35;71.94;94504.38;5026450;28;20210;-60
2023/03/05 01:33:59;;;;;;;21.85;14.13;;;;;;;8.37;71.81;94507.69;5031356;28;20687;-62
2023/03/05 01:36:25;;;;;;;22.92;13.88;;;;;;;8.31;71.99;94515.44;5023458;28;20209;-68
2023/03/05 01:38:54;;;;;;;21.23;13.88;;;;;;;8.33;71.77;94510.38;5025979;28;20215;-61
2023/03/05 01:41:21;;;;;;;23.98;14.75;;;;;;;8.30;71.83;94506.22;5023557;28;20249;-65
2023/03/05 01:43:48;;;;;;;25.38;13.20;;;;;;;8.39;71.02;94505.09;5027015;28;20206;-65
2023/03/05 01:46:28;;;;;;;24.98;13.60;;;;;;;8.39;70.30;94503.41;5026909;28;20210;-64
2023/03/05 01:49:00;;;;;;;23.60;14.05;;;;;;;8.25;69.97;94512.28;5022373;28;20233;-64
2023/03/05 01:51:31;;;;;;;23.02;13.65;;;;;;;8.24;70.44;94500.50;5028498;28;20250;-61
2023/03/05 01:54:00;;;;;;;24.48;14.50;;;;;;;8.24;71.12;94513.16;5031343;28;20212;-64
2023/03/05 01:56:29;;;;;;;27.35;14.75;;;;;;;8.25;70.28;94507.22;5023474;28;20202;-66
2023/03/05 01:59:02;;;;;;;25.00;15.70;;;;;;;8.32;69.94;94509.53;5027934;28;20704;-62
2023/03/05 02:01:30;;;;;;;26.73;14.70;;;;;;;8.25;70.46;94508.06;5023958;28;20212;-64
2023/03/05 02:03:57;;;;;;;20.95;14.07;;;;;;;8.22;69.64;94515.75;5023740;28;20202;-63
2023/03/05 02:06:24;;;;;;;26.80;13.98;;;;;;;8.37;69.94;94511.94;5024952;28;20288;-61
2023/03/05 02:08:51;;;;;;;21.00;14.18;;;;;;;8.20;69.78;94510.72;5028238;28;20303;-62
2023/03/05 02:11:20;;;;;;;23.15;13.93;;;;;;;8.22;70.16;94512.38;5025286;28;20878;-64
2023/03/05 02:13:46;;;;;;;21.88;14.13;;;;;;;8.20;69.83;94513.25;5027809;28;20230;-57
2023/03/05 02:16:13;;;;;;;21.13;13.68;;;;;;;8.17;69.87;94513.38;5022679;28;20748;-61
2023/03/05 02:18:40;;;;;;;24.55;13.73;;;;;;;8.18;70.26;94509.97;5025834;28;20210;-59
2023/03/05 02:21:08;;;;;;;24.73;13.95;;;;;;;8.20;69.88;94513.25;5025703;28;20207;-59
2023/03/05 02:23:37;;;;;;;22.33;13.20;;;;;;;8.32;70.28;94513.75;5027360;28;20261;-64
2023/03/05 02:26:06;;;;;;;24.30;13.55;;;;;;;8.32;70.39;94508.69;5024911;28;20206;-63
2023/03/05 02:28:37;;;;;;;23.58;14.20;;;;;;;8.31;70.26;94517.16;5023626;28;20965;-60
2023/03/05 02:31:09;;;;;;;19.63;13.88;;;;;;;8.23;71.13;94514.03;5025316;28;20280;-63
2023/03/05 02:33:36;;;;;;;25.23;14.88;;;;;;;8.31;70.92;94515.44;5025446;28;20207;-64
2023/03/05 02:36:03;;;;;;;27.58;13.98;;;;;;;8.34;70.13;94512.03;5028421;28;20209;-62
2023/03/05 02:38:32;;;;;;;25.85;13.68;;;;;;;8.30;70.45;94510.44;5022500;28;20210;-65
2023/03/05 02:40:58;;;;;;;28.77;14.77;;;;;;;8.29;71.03;94516.38;5022697;28;20222;-62
2023/03/05 02:43:25;;;;;;;24.73;15.57;;;;;;;8.34;70.71;94517.09;5020783;28;20289;-59
2023/03/05 02:45:52;;;;;;;25.17;15.50;;;;;;;8.31;70.99;94517.16;5022211;28;20207;-62
2023/03/05 02:48:19;;;;;;;24.02;15.27;;;;;;;8.16;71.55;94521.88;5018813;28;20317;-61
2023/03/05 02:50:47;;;;;;;30.23;15.48;;;;;;;8.15;72.54;94519.38;5027244;28;20238;-63
2023/03/05 02:53:13;;;;;;;24.05;15.32;;;;;;;8.09;72.88;94528.00;5031978;28;22067;-63
2023/03/05 02:55:42;;;;;;;29.05;15.82;;;;;;;8.11;72.35;94523.72;5033232;28;20203;-61
2023/03/05 02:58:09;;;;;;;31.70;17.50;;;;;;;8.08;71.86;94526.34;5030100;28;20213;-65
2023/03/05 03:00:35;;;;;;;26.80;17.00;;;;;;;8.10;72.13;94524.59;5033279;28;20202;-64
2023/03/05 03:03:02;;;;;;;36.78;18.73;;;;;;;8.11;72.18;94530.47;5028157;28;20803;-63
2023/03/05 03:05:29;;;;;;;28.50;16.75;;;;;;;8.07;72.35;94527.22;5032116;28;20631;-60
2023/03/05 03:07:55;;;;;;;26.33;16.05;;;;;;;8.01;72.06;94529.09;5033272;28;20509;-61
2023/03/05 03:10:22;;;;;;;31.17;17.13;;;;;;;7.89;72.54;94530.34;5032881;28;20275;-62
2023/03/05 03:12:50;;;;;;;28.30;16.17;;;;;;;7.79;72.03;94534.03;5033279;28;20202;-60
2023/03/05 03:15:18;;;;;;;30.70;17.58;;;;;;;7.84;72.24;94527.94;5033056;28;20301;-65
2023/03/05 03:17:45;;;;;;;27.92;16.48;;;;;;;7.87;71.87;94521.97;5033619;28;20499;-62
2023/03/05 03:20:15;;;;;;;27.85;17.42;;;;;;;7.86;71.90;94530.44;5031769;28;20206;-61
2023/03/05 03:22:43;;;;;;;29.17;16.83;;;;;;;7.87;71.69;94514.38;5035003;28;20309;-63
2023/03/05 03:25:13;;;;;;;28.88;16.40;;;;;;;7.77;71.14;94525.66;5033978;28;20243;-67
2023/03/05 03:27:40;;;;;;;31.67;16.95;;;;;;;7.77;72.05;94526.47;5034904;28;20717;-63
2023/03/05 03:30:11;;;;;;;37.20;17.42;;;;;;;7.72;71.43;94522.44;5034992;28;20317;-60
2023/03/05 03:32:38;;;;;;;27.77;17.17;;;;;;;7.70;71.92;94519.13;5032255;28;20289;-62
2023/03/05 03:35:05;;;;;;;27.98;16.55;;;;;;;7.65;72.47;94526.06;5032167;28;20267;-63
2023/03/05 03:37:32;;;;;;;28.67;17.35;;;;;;;7.64;72.13;94532.81;5034063;28;20198;-60
2023/03/05 03:39:59;;;;;;;31.20;18.05;;;;;;;7.55;72.00;94524.66;5033499;28;20228;-61
2023/03/05 03:42:26;;;;;;;32.90;18.48;;;;;;;7.47;72.53;94518.13;5033821;28;20275;-60
2023/03/05 03:44:53;;;;;;;32.28;16.73;;;;;;;7.53;71.82;94526.41;5031110;28;20213;-59
2023/03/05 03:47:21;;;;;;;29.23;16.40;;;;;;;7.52;72.08;94535.69;5032296;28;20691;-61
2023/03/05 03:49:47;;;;;;;35.55;18.05;;;;;;;7.54;71.72;94538.19;5032085;28;20226;-64
2023/03/05 03:52:14;;;;;;;29.92;17.13;;;;;;;7.50;72.36;94540.78;5030685;28;20195;-64
2023/03/05 03:54:41;;;;;;;35.45;17.98;;;;;;;7.43;72.02;94536.78;5033022;28;22020;-61
2023/03/05 03:57:08;;;;;;;25.70;16.55;;;;;;;7.40;73.18;94533.56;5031789;28;20476;-63
2023/03/05 03:59:34;;;;;;;34.60;17.92;;;;;;;7.42;73.05;94534.34;5032562;28;20202;-62
2023/03/05 04:02:01;;;;;;;30.55;17.92;;;;;;;7.41;72.75;94542.78;5031281;28;20207;-61
2023/03/05 04:04:30;;;;;;;31.75;17.52;;;;;;;7.48;72.74;94540.00;5033147;28;20722;-63
2023/03/05 04:06:56;;;;;;;32.63;18.20;;;;;;;7.46;72.58;94534.16;5032990;28;20676;-59
2023/03/05 04:09:23;;;;;;;35.83;18.25;;;;;;;7.43;73.49;94541.00;5032931;28;20248;-60
2023/03/05 04:11:50;;;;;;;42.78;19.50;;;;;;;7.37;72.73;94534.47;5032021;28;20210;-59
2023/03/05 04:14:16;;;;;;;29.35;18.15;;;;;;;7.24;73.04;94518.00;5032734;28;20524;-60
2023/03/05 04:16:43;;;;;;;34.17;17.67;;;;;;;7.37;72.74;94547.09;5033604;28;20587;-59
2023/03/05 04:19:10;;;;;;;33.10;17.52;;;;;;;7.39;72.83;94539.47;5033719;28;20214;-62
2023/03/05 04:21:38;;;;;;;35.58;18.50;;;;;;;7.35;73.03;94541.25;5033285;28;20226;-62
2023/03/05 04:24:07;;;;;;;30.52;16.35;;;;;;;7.41;72.59;94541.09;5035201;28;20210;-58
2023/03/05 04:26:33;;;;;;;33.95;17.95;;;;;;;7.48;72.46;94540.00;5039530;28;20229;-59
2023/03/05 04:29:00;;;;;;;31.23;17.65;;;;;;;7.32;73.00;94543.88;5036874;28;20210;-64
2023/03/05 04:31:27;;;;;;;37.50;19.40;;;;;;;7.26;72.82;94539.00;5037380;28;20407;-65
2023/03/05 04:33:54;;;;;;;28.25;17.83;;;;;;;7.30;73.35;94535.50;5038546;28;20574;-61
2023/03/05 04:36:20;;;;;;;29.02;18.63;;;;;;;7.31;72.54;94537.16;5038047;28;20210;-64
2023/03/05 04:38:48;;;;;;;31.55;16.95;;;;;;;7.36;73.04;94544.63;5037384;28;20203;-59
2023/03/05 04:41:15;;;;;;;29.42;16.25;;;;;;;7.40;72.57;94538.59;5036060;28;20236;-61
2023/03/05 04:43:42;;;;;;;37.70;18.08;;;;;;;7.38;72.29;94531.06;5036245;28;20769;-63
2023/03/05 04:46:08;;;;;;;34.17;17.73;;;;;;;7.41;72.01;94533.50;5037617;28;20612;-63
2023/03/05 04:48:35;;;;;;;28.80;18.15;;;;;;;7.44;71.82;94537.63;5037803;28;20206;-63
2023/03/05 04:51:02;;;;;;;29.42;16.60;;;;;;;7.55;71.19;94529.72;5038022;28;20692;-63
2023/03/05 04:53:28;;;;;;;31.73;16.45;;;;;;;7.55;71.43;94537.31;5037809;28;20214;-63
2023/03/05 04:56:00;;;;;;;31.75;17.92;;;;;;;7.50;71.64;94537.44;5037036;28;20262;-60
2023/03/05 04:58:27;;;;;;;39.13;19.10;;;;;;;7.49;71.87;94531.56;5034829;28;20685;-64
2023/03/05 05:00:54;;;;;;;33.67;19.27;;;;;;;7.45;72.29;94529.97;5037255;28;20692;-65
2023/03/05 05:03:21;;;;;;;32.55;17.20;;;;;;;7.44;72.75;94523.28;5037434;28;20203;-64
2023/03/05 05:05:54;;;;;;;36.13;18.27;;;;;;;7.47;72.45;94532.47;5037105;28;20202;-64
2023/03/05 05:08:21;;;;;;;28.55;17.02;;;;;;;7.46;72.08;94526.59;5036227;28;20671;-63
2023/03/05 05:10:57;;;;;;;27.58;16.80;;;;;;;7.38;72.33;94528.53;5036989;28;20728;-62
2023/03/05 05:13:23;;;;;;;27.63;16.13;;;;;;;7.41;72.51;94536.03;5036895;28;20655;-64
2023/03/05 05:15:50;;;;;;;32.63;17.92;;;;;;;7.36;72.03;94535.34;5036558;28;20198;-63
2023/03/05 05:18:17;;;;;;;29.00;16.95;;;;;;;7.47;71.42;94535.81;5035681;28;20214;-61
2023/03/05 05:20:44;;;;;;;36.65;17.88;;;;;;;7.42;71.33;94531.81;5035325;28;20737;-62
2023/03/05 05:23:11;;;;;;;30.45;18.00;;;;;;;7.36;71.69;94537.88;5036107;28;20577;-62
2023/03/05 05:25:37;;;;;;;32.55;17.52;;;;;;;7.39;71.61;94540.31;5036261;28;20738;-60
2023/03/05 05:28:05;;;;;;;33.35;17.95;;;;;;;7.48;70.70;94545.06;5035266;28;20643;-59
2023/03/05 05:30:32;;;;;;;27.33;17.08;;;;;;;7.63;70.61;94542.97;5036815;28;20226;-61
2023/03/05 05:32:59;;;;;;;32.20;16.98;;;;;;;7.78;70.15;94547.53;5035654;28;21090;-62
2023/03/05 05:35:26;;;;;;;34.08;18.83;;;;;;;7.87;69.82;94542.22;5037427;28;20210;-60
2023/03/05 05:37:52;;;;;;;27.27;15.93;;;;;;;8.05;68.77;94540.78;5034935;28;20267;-66
2023/03/05 05:40:19;;;;;;;36.33;16.42;;;;;;;8.14;68.18;94540.50;5035865;28;20723;-59
2023/03/05 05:42:46;;;;;;;26.17;16.08;;;;;;;8.32;68.12;94545.00;5035772;28;20211;-61
2023/03/05 05:45:14;;;;;;;36.95;16.48;;;;;;;8.47;67.37;94543.63;5036258;28;20210;-63
2023/03/05 05:47:41;;;;;;;27.83;16.55;;;;;;;8.54;67.17;94540.03;5035853;28;20822;-60
2023/03/05 05:50:08;;;;;;;33.05;16.98;;;;;;;8.66;67.18;94543.88;5036498;28;20587;-59
2023/03/05 05:52:35;;;;;;;24.52;16.08;;;;;;;8.84;66.05;94549.09;5036106;28;20206;-61
2023/03/05 05:55:02;;;;;;;25.23;14.98;;;;;;;9.15;65.62;94543.78;5036417;28;20260;-61
2023/03/05 05:57:28;;;;;;;32.40;15.63;;;;;;;9.90;63.67;94540.91;5035901;28;20206;-63
2023/03/05 05:59:55;;;;;;;29.30;16.13;;;;;;;10.64;61.36;94546.44;5037036;28;20259;-59
2023/03/05 06:02:23;;;;;;;26.33;15.48;;;;;;;10.89;59.76;94547.84;5035887;28;20206;-60
2023/03/05 06:04:50;;;;;;;24.60;15.32;;;;;;;10.81;59.00;94549.91;5035074;28;22985;-61
2023/03/05 06:07:17;;;;;;;26.63;15.60;;;;;;;10.62;59.24;94553.31;5037037;28;20222;-60
2023/03/05 06:09:44;;;;;;;31.40;15.50;;;;;;;10.45;59.60;94561.59;5034865;28;20215;-63
2023/03/05 06:12:11;;;;;;;23.50;14.13;;;;;;;10.20;58.73;94557.50;5034983;28;20626;-62
2023/03/05 06:14:37;;;;;;;24.23;14.93;;;;;;;10.11;58.70;94562.94;5034768;28;20198;-63
2023/03/05 06:17:04;;;;;;;26.52;15.50;;;;;;;9.98;60.11;94561.75;5036177;28;20650;-59
2023/03/05 06:19:32;;;;;;;27.20;15.38;;;;;;;9.94;59.07;94560.22;5034861;28;20202;-64
2023/03/05 06:21:59;;;;;;;24.30;15.90;;;;;;;9.89;59.29;94557.06;5035702;28;20237;-63
2023/03/05 06:24:26;;;;;;;19.27;13.38;;;;;;;9.97;58.63;94565.19;5035182;28;20202;-63
2023/03/05 06:26:52;;;;;;;24.92;14.18;;;;;;;9.91;58.18;94557.81;5034462;28;20206;-61
2023/03/05 06:29:19;;;;;;;34.72;18.02;;;;;;;9.89;59.77;94562.13;5035493;28;20729;-64
2023/03/05 06:31:46;;;;;;;25.67;16.38;;;;;;;10.01;59.88;94564.19;5036099;28;20217;-64
2023/03/05 06:34:13;;;;;;;23.27;14.38;;;;;;;10.08;59.50;94578.28;5034599;28;20206;-64
2023/03/05 06:36:42;;;;;;;23.55;14.80;;;;;;;10.14;59.61;94567.91;5034821;28;20284;-65
2023/03/05 06:39:09;;;;;;;27.65;16.00;;;;;;;10.17;59.28;94577.91;5033826;28;20199;-60
2023/03/05 06:41:36;;;;;;;21.52;14.15;;;;;;;10.25;57.76;94575.13;5036272;28;20214;-62
2023/03/05 06:44:03;;;;;;;25.45;14.75;;;;;;;10.31;57.88;94577.41;5034869;28;20206;-60
2023/03/05 06:46:31;;;;;;;24.08;14.93;;;;;;;10.44;57.75;94573.47;5034783;28;20210;-60
2023/03/05 06:49:01;;;;;;;27.95;13.52;;;;;;;10.55;56.57;94576.41;5034419;28;20210;-62
2023/03/05 06:51:30;;;;;;;35.65;16.23;;;;;;;10.70;56.02;94580.03;5034968;28;20245;-63
2023/03/05 06:54:03;;;;;;;31.42;16.15;;;;;;;10.86;56.11;94578.50;5033387;28;20645;-65
2023/03/05 06:56:30;;;;;;;28.05;15.52;;;;;;;11.28;55.29;94579.25;5037055;28;20198;-64
2023/03/05 06:58:57;;;;;;;25.10;13.60;;;;;;;11.82;53.30;94581.09;5034143;28;20251;-60
2023/03/05 07:01:24;;;;;;;32.83;18.20;;;;;;;12.33;51.38;94582.09;5034940;28;20283;-62
2023/03/05 07:03:52;;;;;;;27.00;17.13;;;;;;;12.57;50.64;94575.78;5033503;28;20323;-60
2023/03/05 07:06:19;;;;;;;26.30;15.82;;;;;;;12.78;49.68;94584.94;5034291;28;20206;-64
2023/03/05 07:08:46;;;;;;;22.95;13.93;;;;;;;12.92;48.49;94581.69;5034584;28;20198;-61
2023/03/05 07:11:16;;;;;;;23.50;14.55;;;;;;;12.98;48.32;94588.19;5035656;28;20503;-60
2023/03/05 07:13:46;;;;;;;29.30;14.85;;;;;;;13.26;48.53;94585.94;5033300;28;20637;-61
2023/03/05 07:16:14;;;;;;;29.40;15.18;;;;;;;13.49;47.31;94588.13;5033739;28;20214;-62
2023/03/05 07:18:41;;;;;;;21.35;14.75;;;;;;;13.40;46.55;94583.47;5034782;28;20676;-63
2023/03/05 07:21:09;;;;;;;23.95;14.98;;;;;;;13.14;47.68;94589.06;5034547;28;20207;-59
2023/03/05 07:23:37;;;;;;;29.45;17.13;;;;;;;12.97;48.71;94587.38;5034839;28;20284;-62
2023/03/05 07:26:06;;;;;;;45.00;24.20;;;;;;;13.14;48.32;94587.34;5034940;28;20695;-64
2023/03/05 07:28:34;;;;;;;28.08;16.17;;;;;;;13.35;47.53;94584.66;5033754;28;20761;-62
2023/03/05 07:31:03;;;;;;;27.40;17.42;;;;;;;13.62;46.93;94578.06;5034868;28;20226;-59
2023/03/05 07:33:30;;;;;;;29.10;18.02;;;;;;;14.07;46.69;94579.06;5034648;28;21982;-63
2023/03/05 07:35:57;;;;;;;32.20;18.83;;;;;;;14.65;45.52;94576.66;5033455;28;20206;-60
2023/03/05 07:38:24;;;;;;;28.65;16.23;;;;;;;15.19;43.38;94572.63;5034378;28;20295;-61
2023/03/05 07:40:51;;;;;;;36.58;16.83;;;;;;;15.35;43.41;94566.59;5035222;28;20234;-62
2023/03/05 07:43:18;;;;;;;31.63;18.23;;;;;;;15.29;42.93;94563.50;5033489;28;20217;-63
2023/03/05 07:45:46;;;;;;;31.00;19.48;;;;;;;15.26;42.75;94562.84;5035164;28;20210;-62
2023/03/05 07:48:15;;;;;;;31.85;18.70;;;;;;;15.28;43.05;94566.97;5032896;28;20757;-62
2023/03/05 07:50:42;;;;;;;33.80;17.70;;;;;;;15.31;42.59;94565.97;5033526;28;20283;-60
2023/03/05 07:53:10;;;;;;;33.47;19.10;;;;;;;15.37;42.46;94568.13;5034934;28;20214;-62
2023/03/05 07:55:42;;;;;;;52.38;26.98;;;;;;;15.72;41.79;94570.34;5033578;28;20627;-62
2023/03/05 07:58:09;;;;;;;44.72;23.65;;;;;;;15.89;41.72;94558.13;5033091;28;20696;-62
2023/03/05 08:00:36;;;;;;;45.20;21.73;;;;;;;16.13;41.39;94566.03;5036963;28;20207;-64
2023/03/05 08:03:04;;;;;;;39.53;20.55;;;;;;;15.93;41.90;94569.00;5038852;28;20214;-63
2023/03/05 08:05:30;;;;;;;33.83;17.70;;;;;;;15.64;42.41;94571.63;5037507;28;20257;-59
2023/03/05 08:07:57;;;;;;;32.97;19.27;;;;;;;15.55;41.91;94564.50;5037497;28;20311;-61
2023/03/05 08:10:24;;;;;;;27.30;18.10;;;;;;;15.57;42.01;94572.94;5036216;28;20210;-64
2023/03/05 08:12:51;;;;;;;30.50;17.38;;;;;;;15.83;41.57;94573.09;5038305;28;20210;-61
2023/03/05 08:15:17;;;;;;;27.42;16.88;;;;;;;16.15;40.74;94571.88;5036504;28;20214;-62
2023/03/05 08:17:44;;;;;;;29.65;16.45;;;;;;;15.97;40.93;94558.47;5035667;28;20206;-62
2023/03/05 08:20:13;;;;;;;27.35;16.73;;;;;;;15.91;41.03;94565.72;5036828;28;20210;-62
2023/03/05 08:22:40;;;;;;;32.78;18.25;;;;;;;16.29;40.36;94559.03;5037106;28;20268;-61
2023/03/05 08:25:08;;;;;;;46.78;27.60;;;;;;;17.23;39.36;94553.72;5037642;28;20219;-62
2023/03/05 08:27:38;;;;;;;25.55;16.77;;;;;;;18.47;37.02;94553.59;5037644;28;20291;-59
2023/03/05 08:30:06;;;;;;;33.15;19.10;;;;;;;19.26;35.08;94555.47;5035918;28;21827;-62
2023/03/05 08:32:33;;;;;;;32.53;19.83;;;;;;;19.63;33.86;94546.59;5038244;28;20288;-64
2023/03/05 08:35:01;;;;;;;26.73;19.02;;;;;;;19.82;34.46;94543.41;5038158;28;20253;-65
2023/03/05 08:37:29;;;;;;;25.23;17.55;;;;;;;19.56;34.40;94547.19;5035372;28;20315;-61
2023/03/05 08:39:57;;;;;;;26.38;18.08;;;;;;;18.83;35.90;94545.78;5035970;28;20307;-63
2023/03/05 08:42:24;;;;;;;26.33;17.70;;;;;;;18.49;36.09;94542.28;5037195;28;20202;-64
2023/03/05 08:44:51;;;;;;;26.55;17.50;;;;;;;18.19;36.60;94535.00;5036789;28;20207;-59
2023/03/05 08:47:19;;;;;;;26.02;18.73;;;;;;;17.79;37.80;94533.63;5034396;28;20202;-62
2023/03/05 08:49:46;;;;;;;24.25;17.30;;;;;;;17.59;38.35;94535.78;5036381;28;20283;-60
2023/03/05 08:52:13;;;;;;;25.25;17.30;;;;;;;17.51;37.99;94527.00;5034607;28;20284;-61
2023/03/05 08:54:41;;;;;;;28.63;17.98;;;;;;;17.49;38.08;94521.97;5036176;28;20618;-63
2023/03/05 08:57:07;;;;;;;28.02;18.63;;;;;;;17.38;37.77;94521.88;5035207;28;20198;-63
2023/03/05 08:59:34;;;;;;;28.02;16.95;;;;;;;17.14;38.41;94528.66;5037953;28;20656;-64
2023/03/05 09:02:01;;;;;;;29.75;17.58;;;;;;;16.44;39.37;94528.19;5035381;28;20198;-64
2023/03/05 09:04:27;;;;;;;30.15;17.98;;;;;;;16.04;39.80;94524.78;5036752;28;21255;-61
2023/03/05 09:06:54;;;;;;;25.13;16.67;;;;;;;15.92;40.19;94516.94;5035414;28;20593;-59
2023/03/05 09:09:21;;;;;;;29.10;18.08;;;;;;;16.04;39.72;94515.38;5037233;28;20228;-61
2023/03/05 09:11:50;;;;;;;25.98;17.30;;;;;;;16.22;39.12;94511.63;5036405;28;20225;-60
2023/03/05 09:14:17;;;;;;;26.67;17.27;;;;;;;16.44;39.18;94503.34;5038254;28;20213;-62
2023/03/05 09:16:44;;;;;;;23.45;16.70;;;;;;;16.32;38.29;94502.44;5035331;28;20259;-61
2023/03/05 09:19:11;;;;;;;26.45;16.10;;;;;;;16.31;38.64;94511.03;5037654;28;20646;-63
2023/03/05 09:21:38;;;;;;;33.08;20.15;;;;;;;16.52;38.89;94503.69;5035711;28;20288;-64
2023/03/05 09:24:05;;;;;;;31.95;20.70;;;;;;;16.66;37.87;94492.53;5036180;28;20202;-65
2023/03/05 09:26:32;;;;;;;27.60;16.80;;;;;;;16.83;37.83;94493.97;5035424;28;20214;-60
2023/03/05 09:29:00;;;;;;;26.45;16.65;;;;;;;16.59;36.96;94501.50;5035206;28;20216;-58
2023/03/05 09:31:27;;;;;;;23.10;16.40;;;;;;;16.05;37.74;94499.06;5036411;28;20233;-63
2023/03/05 09:33:53;;;;;;;29.23;17.92;;;;;;;15.58;38.08;94495.19;5037377;28;20210;-64
2023/03/05 09:36:22;;;;;;;30.27;17.52;;;;;;;15.27;39.21;94500.50;5035450;28;20263;-61
2023/03/05 09:38:50;;;;;;;27.55;16.42;;;;;;;15.20;39.28;94486.44;5035903;28;20213;-64
2023/03/05 09:41:26;;;;;;;21.90;15.52;;;;;;;15.25;39.97;94489.53;5036705;28;20218;-63
2023/03/05 09:44:05;;;;;;;21.60;14.80;;;;;;;15.09;39.31;94476.03;5035642;28;20209;-63
2023/03/05 09:46:44;;;;;;;21.25;14.48;;;;;;;14.94;39.45;94464.97;5035721;28;20300;-64
2023/03/05 09:49:17;;;;;;;19.67;14.07;;;;;;;15.11;38.48;94482.69;5036047;28;20683;-62
2023/03/05 09:51:48;;;;;;;24.48;14.90;;;;;;;15.13;37.85;94477.47;5037164;28;20279;-62
2023/03/05 09:54:18;;;;;;;19.67;13.80;;;;;;;14.96;38.28;94463.97;5035888;28;20207;-62
2023/03/05 09:56:49;;;;;;;20.50;14.57;;;;;;;14.82;39.08;94476.78;5034292;28;20554;-60
2023/03/05 09:59:29;;;;;;;20.98;14.32;;;;;;;14.73;38.57;94477.31;5035096;28;20264;-63
2023/03/05 10:01:59;;;;;;;29.13;19.05;;;;;;;14.53;39.83;94475.09;5034896;28;20749;-62
2023/03/05 10:04:38;;;;;;;24.20;15.88;;;;;;;14.45;39.80;94472.16;5035125;28;20700;-64
2023/03/05 10:07:12;;;;;;;21.38;15.48;;;;;;;14.63;39.35;94465.94;5036019;28;20206;-63
2023/03/05 10:09:46;;;;;;;19.25;14.85;;;;;;;14.44;38.93;94465.38;5035189;28;20205;-62
2023/03/05 10:12:19;;;;;;;19.20;13.43;;;;;;;14.51;39.71;94471.81;5034042;28;21108;-59
2023/03/05 10:14:49;;;;;;;21.05;15.25;;;;;;;14.64;39.42;94473.53;5030768;28;20210;-65
2023/03/05 10:17:39;;;;;;;21.60;13.68;;;;;;;14.83;38.15;94468.19;5032329;28;20280;-61
2023/03/05 10:20:39;;;;;;;18.50;12.60;;;;;;;14.89;38.16;94470.34;5031271;28;20203;-61
2023/03/05 10:23:23;;;;;;;18.13;12.60;;;;;;;15.27;37.62;94446.75;5023156;28;20660;-64
2023/03/05 10:25:59;;;;;;;16.52;12.02;;;;;;;15.38;36.74;94449.47;5016200;28;20405;-59
2023/03/05 10:28:40;;;;;;;19.58;13.35;;;;;;;15.55;36.40;94439.00;5033598;28;20215;-61
2023/03/05 10:31:36;;;;;;;18.85;13.68;;;;;;;15.65;36.70;94434.97;5033382;28;20833;-61
2023/03/05 10:34:20;;;;;;;15.88;11.93;;;;;;;15.89;36.26;94434.31;5032391;28;20210;-63
2023/03/05 10:37:01;;;;;;;17.98;12.75;;;;;;;15.95;35.64;94413.44;5034220;28;20607;-64
2023/03/05 10:39:51;;;;;;;17.92;12.95;;;;;;;16.23;36.00;94420.97;5035000;28;20206;-61
2023/03/05 10:42:25;;;;;;;17.55;13.27;;;;;;;16.54;34.99;94416.38;5034274;28;20635;-64
2023/03/05 10:44:54;;;;;;;13.95;12.35;;;;;;;16.85;34.45;94405.69;5033240;28;20202;-61
2023/03/05 10:47:27;;;;;;;16.85;12.95;;;;;;;16.88;34.15;94402.09;5030931;28;20206;-62
2023/03/05 10:49:56;;;;;;;18.65;13.23;;;;;;;16.51;34.11;94406.31;5032169;28;20232;-61
2023/03/05 10:52:30;;;;;;;17.30;12.10;;;;;;;16.05;35.27;94399.09;5031018;28;20288;-63
2023/03/05 10:54:57;;;;;;;13.55;11.15;;;;;;;15.76;35.59;94402.72;5032870;28;20210;-65
2023/03/05 10:57:25;;;;;;;17.23;12.07;;;;;;;15.90;35.76;94402.66;5031754;28;20201;-59
2023/03/05 10:59:54;;;;;;;19.10;13.43;;;;;;;15.88;35.27;94394.25;5030223;28;20209;-63
2023/03/05 11:02:23;;;;;;;17.92;13.40;;;;;;;15.63;36.54;94400.94;5032626;28;20202;-61
2023/03/05 11:04:52;;;;;;;15.05;11.63;;;;;;;15.68;36.66;94394.69;5032858;28;21615;-63
2023/03/05 11:07:43;;;;;;;17.63;11.80;;;;;;;15.37;36.01;94394.03;5031540;28;20613;-63
2023/03/05 11:10:19;;;;;;;15.68;11.85;;;;;;;15.19;36.75;94388.34;5016865;28;20263;-59
2023/03/05 11:12:47;;;;;;;16.45;11.48;;;;;;;15.06;36.16;94384.91;5032362;28;21623;-63
2023/03/05 11:15:31;;;;;;;18.15;12.45;;;;;;;14.81;36.63;94374.53;5033542;28;20220;-63
2023/03/05 11:18:20;;;;;;;12.50;11.07;;;;;;;14.50;37.43;94389.16;5033470;28;20210;-62
2023/03/05 11:20:47;;;;;;;13.60;11.32;;;;;;;14.50;37.74;94388.34;5033618;28;20261;-62
2023/03/05 11:23:15;;;;;;;21.95;13.35;;;;;;;14.41;38.50;94378.66;5033002;28;20615;-62
2023/03/05 11:25:56;;;;;;;17.20;12.25;;;;;;;14.50;38.78;94378.13;5034706;28;20194;-60
2023/03/05 11:28:25;;;;;;;19.05;13.63;;;;;;;14.67;38.92;94367.69;5033827;28;20211;-61